Overview Statistics Trail Chart Weather Telemetry Raw packets
 

This is the latest recevied weather packets stored in our database for station/object W6TKD-13. If no packets are shown the sender has not sent any weather packets the latest 10 day(s).

<< 13 14 15 16 17 18 19 >>
Time Temp. Humidity Pressure Rain* Wind** Luminosity Snow
1787947273 28.89° C 34% 1016.8 hPa 0 mm - - -
1787946606 28.33° C 35% 1016.9 hPa 0 mm - - -
1787945939 28.33° C 35% 1016.9 hPa 0 mm - - -
1787945272 28.33° C 35% 1016.8 hPa 0 mm - - -
1787944606 28.33° C 36% 1016.6 hPa 0 mm - - -
1787943938 27.78° C 37% 1016.6 hPa 0 mm - - -
1787943271 27.22° C 39% 1016.9 hPa 0 mm - - -
1787942604 26.11° C 40% 1017 hPa 0 mm - - -
1787941938 25° C 41% 1017 hPa 0 mm - - -
1787941270 24.44° C 41% 1017.4 hPa 0 mm - - -
1787940603 23.89° C 41% 1017.4 hPa 0 mm - - -
1787939937 23.33° C 39% 1017.3 hPa 0 mm - - -
1787939269 23.33° C 37% 1017.6 hPa 0 mm - - -
1787938603 23.89° C 34% 1017.8 hPa 0 mm - - -
1787937935 24.44° C 33% 1017.6 hPa 0 mm - - -
1787937268 24.44° C 32% 1017.3 hPa 0 mm - - -
1787936601 24.44° C 31% 1017.3 hPa 0 mm - - -
1787935939 24.44° C 31% 1017.1 hPa 0 mm - - -
1787935268 24.44° C 31% 1016.8 hPa 0 mm - - -
1787934600 23.89° C 32% 1016.5 hPa 0 mm - - -
1787933933 23.89° C 32% 1016.3 hPa 0 mm - - -
1787933266 23.33° C 32% 1015.9 hPa 0 mm - - -
1787932600 22.78° C 32% 1015.9 hPa 0 mm - - -
1787931932 22.22° C 31% 1015.8 hPa 0 mm - - -
1787931267 21.67° C 31% 1015.5 hPa 0 mm - - -

* Rain since midnight (hover to see other rain measurements)
** Current wind speed in m/s (hover to see current wind gust speed)